Time;durP1;ratioP1;P1;durP2;ratioP2;P2;SDS_P1;SDS_P2;PMS_P1;PMS_P2;Temp;Humidity;BMP_temperature;BMP_pressure;BME280_temperature;BME280_humidity;BME280_pressure;Samples;Min_cycle;Max_cycle;Signal;HPM_P1;HPM_P2
2022/09/19 00:01:45;;;;;;;0.70;0.70;;;;;;;7.08;100.00;62731.47;4994943;28;20223;-76
2022/09/19 00:04:14;;;;;;;1.13;1.08;;;;;;;7.08;100.00;62728.94;5006972;28;20203;-76
2022/09/19 00:06:42;;;;;;;0.68;0.68;;;;;;;7.07;100.00;62725.38;4978734;28;20216;-76
2022/09/19 00:09:13;;;;;;;0.68;0.68;;;;;;;7.07;100.00;62730.97;4984093;28;20215;-77
2022/09/19 00:11:41;;;;;;;0.70;0.70;;;;;;;7.04;100.00;62722.28;5001874;28;20243;-77
2022/09/19 00:14:10;;;;;;;0.77;0.60;;;;;;;7.03;100.00;62728.84;4993569;28;20209;-77
2022/09/19 00:16:41;;;;;;;0.90;0.80;;;;;;;7.01;100.00;62721.72;4979170;28;20275;-76
2022/09/19 00:19:11;;;;;;;0.73;0.70;;;;;;;7.00;100.00;62718.69;4989698;28;20215;-76
2022/09/19 00:21:40;;;;;;;0.90;0.90;;;;;;;7.02;100.00;62720.25;4987351;28;20292;-76
2022/09/19 00:26:55;;;;;;;3.03;1.05;;;;;;;7.00;100.00;62720.69;4966112;28;20244;-75
2022/09/19 00:29:22;;;;;;;0.75;0.75;;;;;;;6.98;100.00;62719.16;4998159;28;20199;-77
2022/09/19 00:31:50;;;;;;;0.82;0.82;;;;;;;6.96;100.00;62717.09;4997028;28;20236;-76
2022/09/19 00:34:18;;;;;;;0.82;0.82;;;;;;;6.91;100.00;62711.94;4975369;28;20201;-75
2022/09/19 00:36:45;;;;;;;0.90;0.90;;;;;;;6.94;100.00;62717.03;4979023;28;20221;-76
2022/09/19 00:39:14;;;;;;;0.70;0.70;;;;;;;6.97;100.00;62718.13;5004792;28;20200;-76
2022/09/19 00:41:42;;;;;;;0.68;0.68;;;;;;;6.94;100.00;62717.56;4987471;28;20195;-76
2022/09/19 00:44:42;;;;;;;1.45;0.90;;;;;;;6.84;100.00;62704.72;4979689;28;20512;-76
2022/09/19 00:47:14;;;;;;;0.68;0.68;;;;;;;6.71;100.00;62685.72;4994509;28;20254;-76
2022/09/19 00:49:45;;;;;;;1.67;0.80;;;;;;;6.62;100.00;62679.50;5004762;28;20202;-77
2022/09/19 00:52:17;;;;;;;1.65;0.73;;;;;;;6.60;100.00;62679.44;4980109;28;20232;-76
2022/09/19 00:54:46;;;;;;;0.90;0.90;;;;;;;6.62;100.00;62679.50;4981534;28;20517;-77
2022/09/19 00:57:16;;;;;;;0.80;0.80;;;;;;;6.59;100.00;62676.38;4993728;28;20224;-74
2022/09/19 00:59:46;;;;;;;1.05;1.05;;;;;;;6.47;100.00;62666.53;4966343;29;20204;-76
2022/09/19 01:02:19;;;;;;;0.80;0.80;;;;;;;6.46;100.00;62665.00;4981235;28;20516;-76
2022/09/19 01:04:45;;;;;;;0.80;0.80;;;;;;;6.46;100.00;62662.47;4978108;28;20383;-75
2022/09/19 01:07:20;;;;;;;0.80;0.80;;;;;;;6.41;100.00;62657.84;4984598;28;20231;-75
2022/09/19 01:09:53;;;;;;;0.70;0.70;;;;;;;6.46;100.00;62668.03;4979913;28;20196;-76
2022/09/19 01:12:37;;;;;;;0.60;0.60;;;;;;;6.42;100.00;62663.41;4976142;28;20282;-75
2022/09/19 01:15:26;;;;;;;0.65;0.65;;;;;;;6.41;100.00;62657.31;4991506;28;20202;-76
2022/09/19 01:17:57;;;;;;;0.73;0.70;;;;;;;6.32;100.00;62653.59;4986097;28;20291;-76
2022/09/19 01:20:57;;;;;;;0.90;0.90;;;;;;;6.39;100.00;62652.72;4979606;28;20270;-76
2022/09/19 01:23:41;;;;;;;0.82;0.82;;;;;;;6.30;100.00;62651.03;4989147;28;20223;-76
2022/09/19 01:26:32;;;;;;;0.90;0.90;;;;;;;6.25;100.00;62640.81;4971460;28;20197;-76
2022/09/19 01:29:07;;;;;;;1.40;1.30;;;;;;;6.26;100.00;62647.44;4972091;28;20200;-75
2022/09/19 01:31:37;;;;;;;0.98;0.98;;;;;;;6.24;100.00;62644.84;4981610;28;20543;-76
2022/09/19 01:34:11;;;;;;;1.10;1.10;;;;;;;6.16;100.00;62632.06;4966815;28;20204;-76
2022/09/19 01:36:42;;;;;;;0.60;0.60;;;;;;;6.19;100.00;62637.16;4966838;28;20217;-76
2022/09/19 01:39:12;;;;;;;1.30;1.20;;;;;;;6.16;100.00;62631.56;4967833;28;20229;-76
2022/09/19 01:41:38;;;;;;;0.93;0.93;;;;;;;6.04;100.00;62624.22;4977593;28;20225;-76
2022/09/19 01:44:17;;;;;;;1.73;1.40;;;;;;;6.06;100.00;62621.75;4987497;28;20235;-75
2022/09/19 01:46:53;;;;;;;1.20;1.20;;;;;;;6.13;100.00;62630.97;4980705;28;20421;-75
2022/09/19 01:49:32;;;;;;;1.40;1.30;;;;;;;6.05;100.00;62625.25;4977577;28;20212;-76
2022/09/19 01:52:07;;;;;;;1.10;1.05;;;;;;;6.07;100.00;62622.25;4980809;28;20478;-76
2022/09/19 01:54:41;;;;;;;0.85;0.85;;;;;;;6.04;100.00;62616.66;4979467;28;20198;-77
2022/09/19 01:57:20;;;;;;;0.70;0.70;;;;;;;6.01;100.00;62619.13;4989443;28;20215;-76
2022/09/19 01:59:59;;;;;;;1.10;0.85;;;;;;;5.97;100.00;62615.00;4972077;28;20208;-77
2022/09/19 02:02:35;;;;;;;0.75;0.70;;;;;;;5.92;100.00;62609.34;4981895;28;20230;-74
2022/09/19 02:05:08;;;;;;;0.80;0.80;;;;;;;5.85;100.00;62603.16;4986963;28;20259;-76
2022/09/19 02:07:42;;;;;;;0.70;0.70;;;;;;;5.90;100.00;62607.78;4991627;28;20238;-75
2022/09/19 02:10:14;;;;;;;0.82;0.82;;;;;;;5.93;100.00;62612.88;5008256;28;20196;-76
2022/09/19 02:12:44;;;;;;;0.60;0.60;;;;;;;5.89;100.00;62609.28;4989602;28;20235;-77
2022/09/19 02:15:17;;;;;;;0.73;0.73;;;;;;;5.85;100.00;62605.16;4978853;28;20311;-77
2022/09/19 02:17:51;;;;;;;1.08;1.08;;;;;;;5.93;100.00;62610.38;5001330;28;20235;-75
2022/09/19 02:20:24;;;;;;;0.45;0.45;;;;;;;5.92;100.00;62606.81;4997351;28;20212;-77
2022/09/19 02:22:54;;;;;;;0.55;0.55;;;;;;;5.95;100.00;62612.94;4984609;28;20230;-76
2022/09/19 02:25:25;;;;;;;1.10;1.00;;;;;;;5.94;100.00;62611.91;4987778;28;20200;-75
2022/09/19 02:27:59;;;;;;;1.10;1.10;;;;;;;5.91;100.00;62608.28;4994396;28;20228;-76
2022/09/19 02:30:28;;;;;;;1.10;1.10;;;;;;;6.01;100.00;62621.13;4986506;28;20227;-76
2022/09/19 02:32:55;;;;;;;2.75;0.80;;;;;;;5.95;100.00;62607.38;4972088;28;20281;-75
2022/09/19 02:35:38;;;;;;;0.65;0.65;;;;;;;5.90;100.00;62607.78;4994377;28;20226;-76
2022/09/19 02:38:14;;;;;;;0.70;0.70;;;;;;;5.96;100.00;62610.91;5006009;28;20223;-76
2022/09/19 02:40:52;;;;;;;0.80;0.80;;;;;;;5.93;100.00;62610.88;4991484;28;20207;-76
2022/09/19 02:43:29;;;;;;;1.10;0.40;;;;;;;5.82;100.00;62602.03;4969658;28;20252;-76
2022/09/19 02:46:05;;;;;;;0.60;0.60;;;;;;;5.85;100.00;62602.63;4981514;28;20222;-76
2022/09/19 02:48:38;;;;;;;0.85;0.85;;;;;;;5.94;100.00;62608.88;4987114;28;20223;-77
2022/09/19 02:51:08;;;;;;;0.70;0.70;;;;;;;5.89;100.00;62604.22;4974887;28;20251;-77
2022/09/19 02:53:42;;;;;;;2.72;0.80;;;;;;;5.79;100.00;62599.47;4976662;28;20284;-77
2022/09/19 02:56:14;;;;;;;2.35;1.02;;;;;;;5.75;100.00;62594.81;4987242;28;20219;-76
2022/09/19 02:58:46;;;;;;;0.55;0.55;;;;;;;5.73;100.00;62590.75;4968090;28;20226;-76
2022/09/19 03:01:20;;;;;;;0.82;0.82;;;;;;;5.79;100.00;62596.44;4984124;28;20208;-75
2022/09/19 03:06:41;;;;;;;4.68;0.80;;;;;;;5.69;100.00;62589.16;4974104;28;20452;-75
2022/09/19 03:09:11;;;;;;;0.98;0.95;;;;;;;5.67;100.00;62584.59;4984705;28;20200;-75
2022/09/19 03:11:43;;;;;;;1.05;1.00;;;;;;;5.65;100.00;62580.00;4993796;28;20212;-75
2022/09/19 03:14:10;;;;;;;0.80;0.80;;;;;;;5.61;100.00;62580.41;4979832;28;20200;-76
2022/09/19 03:16:44;;;;;;;1.45;1.30;;;;;;;5.55;100.00;62571.69;4986094;28;20196;-76
2022/09/19 03:19:11;;;;;;;1.42;1.10;;;;;;;5.49;100.00;62566.03;4984371;28;20303;-75
2022/09/19 03:21:38;;;;;;;0.90;0.90;;;;;;;5.49;100.00;62565.50;4985386;28;20236;-76
2022/09/19 03:24:06;;;;;;;2.00;1.00;;;;;;;5.47;100.00;62558.41;4977058;28;20208;-76
2022/09/19 03:26:35;;;;;;;0.95;0.95;;;;;;;5.45;100.00;62556.84;4985126;28;20497;-76
2022/09/19 03:29:03;;;;;;;0.70;0.70;;;;;;;5.33;100.00;62547.03;4991564;28;20199;-76
2022/09/19 03:31:31;;;;;;;0.98;0.63;;;;;;;5.33;100.00;62546.53;4999519;28;20335;-76
2022/09/19 03:33:59;;;;;;;0.70;0.70;;;;;;;5.40;100.00;62558.78;4985710;28;20304;-76
2022/09/19 03:36:27;;;;;;;0.90;0.90;;;;;;;5.41;100.00;62559.81;4972036;28;20213;-76
2022/09/19 03:38:59;;;;;;;1.20;0.95;;;;;;;5.39;100.00;62552.69;4992620;28;20206;-76
2022/09/19 03:41:25;;;;;;;0.70;0.70;;;;;;;5.35;100.00;62548.59;4987988;28;20196;-76
2022/09/19 03:43:52;;;;;;;1.30;0.65;;;;;;;5.29;100.00;62547.97;4986589;28;20516;-75
2022/09/19 03:46:21;;;;;;;0.90;0.90;;;;;;;5.33;100.00;62549.03;4989277;28;20211;-76
2022/09/19 03:48:47;;;;;;;0.70;0.70;;;;;;;5.33;100.00;62547.03;5001554;28;20208;-77
2022/09/19 03:51:18;;;;;;;1.27;1.17;;;;;;;5.38;100.00;62554.72;4971378;28;20209;-77
2022/09/19 03:53:45;;;;;;;1.55;1.45;;;;;;;5.28;100.00;62539.34;4977640;28;20603;-76
2022/09/19 03:56:13;;;;;;;1.27;1.00;;;;;;;5.38;100.00;62554.19;4985257;28;20204;-76
2022/09/19 03:58:42;;;;;;;0.70;0.70;;;;;;;5.37;100.00;62550.63;4987725;28;20224;-78
2022/09/19 04:01:12;;;;;;;3.03;0.90;;;;;;;5.29;100.00;62547.97;4981446;28;20200;-79
2022/09/19 04:03:39;;;;;;;1.23;0.95;;;;;;;5.39;100.00;62558.25;4988049;28;20224;-76
2022/09/19 04:06:07;;;;;;;1.10;1.10;;;;;;;5.45;100.00;62563.94;4996319;28;20258;-76
2022/09/19 04:08:35;;;;;;;1.00;1.00;;;;;;;5.48;100.00;62567.53;4986887;28;22770;-77
2022/09/19 04:11:03;;;;;;;1.40;1.30;;;;;;;5.38;100.00;62552.19;4971081;28;20282;-75
2022/09/19 04:13:31;;;;;;;2.88;1.60;;;;;;;5.46;100.00;62562.44;4986165;28;20231;-76
2022/09/19 04:16:00;;;;;;;1.42;1.40;;;;;;;5.27;100.00;62540.84;5000449;28;20211;-77
2022/09/19 04:18:27;;;;;;;0.90;0.90;;;;;;;5.44;100.00;62555.84;4975970;28;20224;-76
2022/09/19 04:20:55;;;;;;;0.60;0.60;;;;;;;5.53;100.00;62569.63;4984150;28;20203;-76
2022/09/19 04:23:26;;;;;;;0.95;0.82;;;;;;;5.53;100.00;62572.16;4984346;28;20224;-76
2022/09/19 04:25:55;;;;;;;1.08;0.70;;;;;;;5.57;100.00;62573.78;4985073;28;20217;-77
2022/09/19 04:28:23;;;;;;;1.25;1.02;;;;;;;5.63;100.00;62577.41;4985532;28;20558;-75
2022/09/19 04:30:50;;;;;;;1.60;1.50;;;;;;;5.73;100.00;62590.25;4986392;28;20208;-76
2022/09/19 04:33:20;;;;;;;1.85;0.90;;;;;;;5.61;100.00;62578.41;4985663;28;20239;-75
2022/09/19 04:35:47;;;;;;;1.02;1.02;;;;;;;5.82;100.00;62599.53;4985176;28;20200;-75
2022/09/19 04:38:17;;;;;;;1.75;0.73;;;;;;;5.84;100.00;62607.19;4977309;28;20404;-76
2022/09/19 04:40:45;;;;;;;2.70;1.30;;;;;;;5.91;100.00;62608.81;4966610;29;20220;-76
2022/09/19 04:43:15;;;;;;;1.42;1.30;;;;;;;5.99;100.00;62617.06;4967153;28;20220;-76
2022/09/19 04:45:47;;;;;;;2.10;1.30;;;;;;;6.15;100.00;62633.03;4984997;28;20251;-76
2022/09/19 04:48:14;;;;;;;1.35;1.13;;;;;;;6.22;100.00;62638.25;4984723;28;20224;-76
2022/09/19 04:50:41;;;;;;;2.30;1.10;;;;;;;6.30;100.00;62649.00;4984830;28;20227;-76
2022/09/19 04:53:12;;;;;;;1.55;1.40;;;;;;;6.31;100.00;62645.00;4985291;28;20465;-76
2022/09/19 04:55:40;;;;;;;3.33;1.55;;;;;;;6.42;100.00;62661.38;4985515;28;20188;-75
2022/09/19 04:58:07;;;;;;;1.42;1.33;;;;;;;6.57;100.00;62681.94;4984303;28;20227;-76
2022/09/19 05:00:38;;;;;;;1.50;1.40;;;;;;;6.68;100.00;62687.69;4984554;28;20196;-75
2022/09/19 05:03:07;;;;;;;1.42;1.40;;;;;;;6.77;100.00;62702.03;4984474;28;20504;-76
2022/09/19 05:05:35;;;;;;;1.30;1.20;;;;;;;6.87;100.00;62704.75;4984642;28;20220;-75
2022/09/19 05:08:04;;;;;;;2.05;1.40;;;;;;;6.97;100.00;62715.59;4985041;28;20232;-76
2022/09/19 05:10:32;;;;;;;6.75;1.30;;;;;;;7.13;100.00;62731.56;4994254;28;20238;-76
2022/09/19 05:12:59;;;;;;;2.95;1.20;;;;;;;7.28;100.00;62749.59;4984960;28;20513;-75
2022/09/19 05:15:27;;;;;;;4.22;1.33;;;;;;;7.46;100.00;62767.63;4990893;28;20223;-76
2022/09/19 05:17:55;;;;;;;1.30;1.20;;;;;;;7.52;100.00;62776.91;4983670;28;20246;-76
2022/09/19 05:20:26;;;;;;;4.75;2.50;;;;;;;7.43;100.00;62767.09;4989022;28;20195;-75
2022/09/19 05:22:58;;;;;;;4.28;3.92;;;;;;;7.68;100.00;62787.84;4988180;28;20224;-76
2022/09/19 05:25:27;;;;;;;6.45;4.28;;;;;;;7.73;100.00;62798.56;4988006;28;20231;-76
2022/09/19 05:27:56;;;;;;;2.33;2.03;;;;;;;7.69;100.00;62791.38;4987953;28;20366;-75
2022/09/19 05:30:26;;;;;;;4.88;3.00;;;;;;;7.73;100.00;62795.53;4988761;28;20215;-76
2022/09/19 05:32:52;;;;;;;6.43;2.85;;;;;;;7.72;100.00;62791.94;4987535;28;20282;-76
2022/09/19 05:35:21;;;;;;;4.82;3.20;;;;;;;7.69;100.00;62793.91;4987775;28;20262;-75
2022/09/19 05:37:48;;;;;;;10.15;3.40;;;;;;;7.69;100.00;62788.84;4987362;28;20219;-76
2022/09/19 05:40:15;;;;;;;3.78;3.20;;;;;;;7.73;100.00;62790.97;4986418;28;20226;-76
2022/09/19 05:42:42;;;;;;;5.45;3.03;;;;;;;7.76;100.00;62801.16;4990054;28;20220;-75
2022/09/19 05:45:11;;;;;;;16.00;3.40;;;;;;;7.70;100.00;62794.94;4987291;28;20313;-76
2022/09/19 05:47:39;;;;;;;7.25;3.15;;;;;;;7.81;100.00;62798.72;4986850;28;20414;-74
2022/09/19 05:50:08;;;;;;;5.00;3.10;;;;;;;7.79;100.00;62796.63;4985918;28;20732;-75
2022/09/19 05:55:21;;;;;;;3.17;2.90;;;;;;;7.90;100.00;62813.56;4987668;28;20191;-75
2022/09/19 05:57:51;;;;;;;4.18;3.50;;;;;;;7.96;100.00;62814.72;4986789;28;20246;-77
2022/09/19 06:00:19;;;;;;;6.55;3.50;;;;;;;7.88;100.00;62809.00;4986202;28;20196;-76
2022/09/19 06:02:53;;;;;;;5.43;2.60;;;;;;;7.98;100.00;62818.78;4985925;28;20423;-75
2022/09/19 06:05:22;;;;;;;5.35;2.60;;;;;;;8.09;100.00;62832.69;4984128;28;20511;-74
2022/09/19 06:07:51;;;;;;;6.72;2.53;;;;;;;8.10;100.00;62831.19;4984211;28;20344;-75
2022/09/19 06:10:19;;;;;;;11.07;2.97;;;;;;;8.29;100.00;62850.31;4986965;28;20196;-77
2022/09/19 06:12:46;;;;;;;6.95;3.13;;;;;;;8.29;100.00;62848.28;4985993;28;20245;-76
2022/09/19 06:15:13;;;;;;;4.68;2.72;;;;;;;8.41;100.00;62865.25;4987742;28;20235;-76
2022/09/19 06:17:39;;;;;;;5.20;3.00;;;;;;;8.37;100.00;62861.63;4984237;28;20234;-76
2022/09/19 06:20:07;;;;;;;4.82;2.83;;;;;;;8.31;100.00;62854.91;4986665;28;20200;-77
2022/09/19 06:22:34;;;;;;;6.68;2.72;;;;;;;8.49;100.00;62874.00;4986683;28;20255;-76
2022/09/19 06:25:03;;;;;;;2.40;2.20;;;;;;;8.43;99.44;62865.28;4985278;28;20199;-76
2022/09/19 06:27:30;;;;;;;3.63;3.33;;;;;;;8.55;100.00;62880.22;4986564;28;20481;-75
2022/09/19 06:29:57;;;;;;;3.25;2.85;;;;;;;8.62;99.27;62887.47;4985415;28;20275;-76
2022/09/19 06:32:23;;;;;;;2.72;2.40;;;;;;;8.72;99.21;62894.72;4985670;28;20314;-75
2022/09/19 06:34:50;;;;;;;10.18;2.40;;;;;;;8.89;99.71;62915.34;4982863;28;20460;-77
2022/09/19 06:37:17;;;;;;;4.75;2.80;;;;;;;8.81;100.00;62912.16;4985453;28;20220;-79
2022/09/19 06:39:44;;;;;;;3.35;3.08;;;;;;;8.96;100.00;62924.59;4986215;28;20196;-77
2022/09/19 06:42:12;;;;;;;4.80;2.70;;;;;;;8.99;99.81;62925.69;4987847;28;20227;-77
2022/09/19 06:44:40;;;;;;;2.60;2.40;;;;;;;8.95;99.21;62919.03;4985532;28;20200;-76
2022/09/19 06:47:07;;;;;;;2.80;2.60;;;;;;;9.03;99.45;62926.75;4984349;28;20238;-75
2022/09/19 06:49:34;;;;;;;3.88;2.60;;;;;;;9.28;100.00;62952.63;4985076;28;20235;-75
2022/09/19 06:52:02;;;;;;;2.50;2.40;;;;;;;9.44;99.04;62971.69;4984022;28;20580;-76
2022/09/19 06:54:29;;;;;;;2.88;2.60;;;;;;;9.64;99.10;62992.38;4986710;28;20238;-78
2022/09/19 06:56:56;;;;;;;3.83;2.63;;;;;;;9.87;97.84;63013.63;4988638;28;20336;-77
2022/09/19 06:59:24;;;;;;;2.03;1.92;;;;;;;10.13;95.84;63043.06;4985995;28;20220;-78
2022/09/19 07:01:51;;;;;;;4.80;2.22;;;;;;;10.19;94.96;63049.28;4984808;28;20253;-76
2022/09/19 07:04:18;;;;;;;3.00;1.60;;;;;;;10.33;92.69;63061.22;4985051;28;20211;-80
2022/09/19 07:06:46;;;;;;;4.22;2.72;;;;;;;10.54;90.53;63081.94;4984938;28;20227;-76
2022/09/19 07:09:13;;;;;;;1.75;1.73;;;;;;;10.74;87.66;63105.69;4986487;28;20203;-78
2022/09/19 07:11:39;;;;;;;2.47;2.28;;;;;;;10.77;85.17;63103.19;4986725;28;20196;-78
2022/09/19 07:14:06;;;;;;;2.60;1.88;;;;;;;10.74;85.21;63100.59;4984919;28;20228;-79
2022/09/19 07:16:34;;;;;;;1.48;1.48;;;;;;;10.84;84.38;63116.03;4984300;28;20270;-77
2022/09/19 07:19:01;;;;;;;1.63;1.52;;;;;;;11.07;82.10;63141.88;4985161;28;20184;-77
2022/09/19 07:21:28;;;;;;;1.42;1.33;;;;;;;11.32;80.02;63165.75;4984879;28;20200;-77
2022/09/19 07:23:55;;;;;;;1.10;1.10;;;;;;;11.42;79.08;63178.66;4985955;28;20195;-77
2022/09/19 07:26:22;;;;;;;1.02;0.98;;;;;;;11.66;77.30;63200.47;4986073;28;20287;-77
2022/09/19 07:28:49;;;;;;;1.80;1.55;;;;;;;11.80;75.72;63211.91;4985852;28;20197;-77
2022/09/19 07:31:16;;;;;;;1.48;1.42;;;;;;;11.75;75.47;63209.28;4984921;28;20203;-77
2022/09/19 07:33:45;;;;;;;3.53;1.40;;;;;;;11.98;74.05;63231.06;4983567;28;20222;-78
2022/09/19 07:36:12;;;;;;;1.85;1.30;;;;;;;11.99;73.16;63234.16;4983187;28;20485;-78
2022/09/19 07:38:39;;;;;;;0.98;0.98;;;;;;;12.04;72.46;63239.31;4986613;28;20227;-76
2022/09/19 07:41:06;;;;;;;2.03;1.30;;;;;;;12.06;71.69;63236.78;4987020;28;20254;-78
2022/09/19 07:43:33;;;;;;;1.13;1.13;;;;;;;12.15;71.81;63251.22;4985231;28;20220;-78
2022/09/19 07:46:00;;;;;;;2.10;1.95;;;;;;;11.98;71.67;63236.16;4986978;28;20267;-76
2022/09/19 07:48:27;;;;;;;1.90;1.33;;;;;;;11.92;70.99;63224.34;4986752;28;20230;-77
2022/09/19 07:50:58;;;;;;;1.80;1.45;;;;;;;12.01;73.92;63231.63;4984533;28;20207;-79
2022/09/19 07:53:25;;;;;;;3.53;1.42;;;;;;;11.95;71.99;63230.00;4986273;28;20255;-78
2022/09/19 07:55:54;;;;;;;1.63;1.52;;;;;;;12.04;70.48;63236.78;4985467;28;20212;-77
2022/09/19 07:58:22;;;;;;;3.67;1.55;;;;;;;11.99;70.90;63234.66;4986342;28;20220;-76
2022/09/19 08:00:50;;;;;;;2.58;1.40;;;;;;;12.08;69.28;63243.97;4987166;28;20223;-77
2022/09/19 08:03:19;;;;;;;1.90;1.50;;;;;;;12.21;70.28;63257.47;4985734;28;20430;-77
2022/09/19 08:05:48;;;;;;;2.53;2.33;;;;;;;12.40;71.65;63274.59;4984935;28;20236;-77
2022/09/19 08:08:18;;;;;;;1.60;1.50;;;;;;;12.56;70.22;63293.22;4985091;28;20226;-77
2022/09/19 08:10:45;;;;;;;5.10;2.30;;;;;;;12.86;68.02;63319.22;4984418;28;20583;-77
2022/09/19 08:13:14;;;;;;;2.08;1.90;;;;;;;12.87;66.91;63327.41;4986601;28;20232;-77
2022/09/19 08:15:41;;;;;;;1.95;1.85;;;;;;;12.74;67.56;63314.44;4985475;28;20399;-77
2022/09/19 08:18:13;;;;;;;2.42;2.22;;;;;;;12.78;66.81;63319.13;4985428;28;20266;-77
2022/09/19 08:20:40;;;;;;;1.70;1.60;;;;;;;12.88;66.03;63325.88;4985445;28;20410;-78
2022/09/19 08:23:10;;;;;;;3.95;1.70;;;;;;;12.96;64.13;63339.31;4991241;28;20224;-78
2022/09/19 08:25:42;;;;;;;2.00;1.67;;;;;;;13.09;63.71;63350.25;4968084;28;20261;-79
2022/09/19 08:28:10;;;;;;;3.85;1.77;;;;;;;12.96;64.30;63331.63;4975486;28;20283;-77
2022/09/19 08:30:37;;;;;;;7.55;2.15;;;;;;;12.96;65.68;63336.75;4984012;28;20197;-76
2022/09/19 08:33:06;;;;;;;4.60;2.15;;;;;;;12.91;64.49;63334.13;4985988;28;20443;-78
2022/09/19 08:35:37;;;;;;;2.47;1.88;;;;;;;12.97;63.92;63335.75;4986907;28;20235;-77
2022/09/19 08:38:05;;;;;;;3.28;2.03;;;;;;;12.77;63.96;63317.53;4987279;28;20287;-76
2022/09/19 08:40:44;;;;;;;2.08;1.95;;;;;;;12.83;65.08;63321.22;4983057;28;20500;-76
2022/09/19 08:43:14;;;;;;;3.42;1.92;;;;;;;13.06;64.59;63342.56;4984694;28;20243;-77
2022/09/19 08:46:11;;;;;;;3.88;1.98;;;;;;;13.20;63.62;63356.56;4986391;28;20200;-78
2022/09/19 08:48:56;;;;;;;3.63;1.90;;;;;;;13.14;61.62;63350.31;4984311;28;20254;-77
2022/09/19 08:51:29;;;;;;;6.50;2.22;;;;;;;13.39;62.07;63378.81;4988811;28;20212;-79
2022/09/19 08:54:02;;;;;;;1.95;1.85;;;;;;;13.41;61.00;63383.44;4989785;28;20224;-78
2022/09/19 08:56:31;;;;;;;2.60;1.90;;;;;;;13.53;61.79;63396.41;4984722;28;20216;-77
2022/09/19 08:59:01;;;;;;;5.30;2.20;;;;;;;13.57;60.67;63402.59;4984792;28;20200;-76
2022/09/19 09:01:32;;;;;;;3.22;2.50;;;;;;;13.68;61.09;63411.47;4984556;28;20208;-77
2022/09/19 09:04:15;;;;;;;3.28;2.55;;;;;;;13.76;60.79;63422.31;4985032;28;20255;-77
2022/09/19 09:06:53;;;;;;;3.30;2.08;;;;;;;13.88;60.48;63430.19;4984886;28;20266;-78
2022/09/19 09:09:32;;;;;;;3.13;2.38;;;;;;;13.73;57.87;63414.09;4986382;28;20255;-77
2022/09/19 09:12:09;;;;;;;2.15;2.05;;;;;;;13.71;57.76;63414.56;4971184;28;20524;-78
2022/09/19 09:14:46;;;;;;;3.83;2.60;;;;;;;13.94;58.11;63435.91;4978699;28;20353;-76
2022/09/19 09:17:23;;;;;;;4.93;2.00;;;;;;;13.95;54.14;63442.06;4986018;28;20215;-76
2022/09/19 09:20:02;;;;;;;2.08;1.77;;;;;;;14.03;53.02;63447.78;4983700;28;20263;-77
2022/09/19 09:22:33;;;;;;;5.95;2.22;;;;;;;13.91;53.27;63433.28;4984209;28;20302;-77
2022/09/19 09:25:07;;;;;;;2.47;2.28;;;;;;;14.05;54.27;63449.88;4984625;28;20200;-75
2022/09/19 09:27:42;;;;;;;6.28;2.40;;;;;;;14.40;55.34;63481.13;4985814;28;20219;-76
2022/09/19 09:30:16;;;;;;;2.15;1.95;;;;;;;14.60;49.71;63503.94;4987410;28;20219;-76
2022/09/19 09:32:48;;;;;;;2.20;2.00;;;;;;;14.60;49.62;63503.94;4984999;28;20330;-76
2022/09/19 09:35:27;;;;;;;1.98;1.88;;;;;;;14.79;50.57;63521.09;4989142;28;20258;-76
2022/09/19 09:38:00;;;;;;;5.00;2.13;;;;;;;14.91;50.59;63536.13;4985355;28;20266;-76
2022/09/19 09:43:27;;;;;;;2.40;2.20;;;;;;;15.29;50.61;63575.09;4985250;28;20235;-77
2022/09/19 09:45:54;;;;;;;5.15;2.22;;;;;;;15.38;50.95;63582.41;4985770;28;20204;-77
2022/09/19 09:48:26;;;;;;;4.22;2.15;;;;;;;15.35;50.26;63581.31;4985741;28;20345;-75
2022/09/19 09:51:10;;;;;;;5.22;2.58;;;;;;;15.46;50.18;63592.78;4985119;28;20291;-76
2022/09/19 09:54:03;;;;;;;6.35;2.00;;;;;;;15.40;50.75;63589.09;4983837;28;20327;-75
2022/09/19 09:56:36;;;;;;;3.00;1.80;;;;;;;15.45;50.47;63589.69;4984313;28;20204;-77
2022/09/19 10:05:13;;;;;;;4.43;3.80;;;;;;;15.53;49.58;63600.06;4944519;29;20258;-77
2022/09/19 10:07:46;;;;;;;5.18;2.00;;;;;;;15.80;50.69;63628.13;4985926;28;20226;-77
2022/09/19 10:10:16;;;;;;;1.90;1.80;;;;;;;15.96;47.88;63649.91;4982236;28;20200;-77
2022/09/19 10:12:50;;;;;;;3.53;1.38;;;;;;;16.25;48.67;63676.97;4980799;28;20227;-77
2022/09/19 10:15:22;;;;;;;1.98;1.73;;;;;;;16.38;47.79;63693.06;4990146;28;20230;-76
2022/09/19 10:17:55;;;;;;;2.00;1.50;;;;;;;16.44;46.48;63697.25;4992035;28;20235;-78
2022/09/19 10:20:29;;;;;;;2.55;1.60;;;;;;;16.38;46.46;63685.34;4987104;28;20203;-78
2022/09/19 10:22:56;;;;;;;1.98;1.88;;;;;;;16.32;45.58;63682.22;4986783;28;20253;-78
2022/09/19 10:25:26;;;;;;;4.45;1.85;;;;;;;16.13;45.60;63665.53;4987482;28;20200;-76
2022/09/19 10:27:52;;;;;;;5.80;1.80;;;;;;;16.11;45.69;63662.94;4988317;28;20223;-76
2022/09/19 10:30:25;;;;;;;1.83;1.73;;;;;;;16.29;45.21;63676.00;4987778;28;20269;-76
2022/09/19 10:32:52;;;;;;;1.52;1.42;;;;;;;16.14;44.81;63664.00;4998634;28;20307;-76
2022/09/19 10:35:31;;;;;;;1.45;1.38;;;;;;;16.15;44.94;63665.03;4981024;28;20238;-77
2022/09/19 10:38:02;;;;;;;1.58;1.48;;;;;;;16.38;44.29;63688.44;4983046;28;20226;-77
2022/09/19 10:40:30;;;;;;;1.70;1.52;;;;;;;16.35;43.97;63687.91;4987740;28;20210;-76
2022/09/19 10:42:58;;;;;;;0.98;0.98;;;;;;;16.10;44.38;63659.34;4988103;28;20234;-77
2022/09/19 10:45:28;;;;;;;1.42;1.33;;;;;;;16.40;44.64;63690.53;4991841;28;20200;-78
2022/09/19 10:47:59;;;;;;;1.77;1.65;;;;;;;16.31;44.40;63681.16;4987766;28;20287;-77
2022/09/19 10:50:27;;;;;;;3.20;1.60;;;;;;;16.38;44.42;63693.59;4987479;28;20195;-76
2022/09/19 10:53:01;;;;;;;6.65;2.28;;;;;;;16.32;43.30;63679.63;4993580;28;20473;-77
2022/09/19 10:55:33;;;;;;;1.50;1.40;;;;;;;16.38;43.18;63691.00;4978820;28;20230;-77
2022/09/19 10:58:03;;;;;;;2.03;1.50;;;;;;;16.27;42.52;63676.47;4972960;28;20230;-76
2022/09/19 11:00:34;;;;;;;1.50;1.20;;;;;;;16.25;42.27;63674.41;4971099;28;20313;-78
2022/09/19 11:03:06;;;;;;;1.40;1.30;;;;;;;16.49;42.49;63702.47;4987377;28;20227;-77
2022/09/19 11:05:36;;;;;;;2.03;1.27;;;;;;;16.46;41.64;63704.50;4989117;28;20195;-76
2022/09/19 11:08:18;;;;;;;3.38;1.40;;;;;;;16.46;40.84;63696.25;4988038;28;20254;-77
2022/09/19 11:10:46;;;;;;;3.25;1.30;;;;;;;16.62;41.66;63718.56;4970801;28;20207;-78
2022/09/19 11:13:15;;;;;;;2.85;1.70;;;;;;;16.60;41.73;63710.84;4982384;28;20219;-77
2022/09/19 11:16:12;;;;;;;4.78;1.30;;;;;;;16.55;41.85;63708.72;4980223;28;20235;-78
2022/09/19 11:19:03;;;;;;;2.10;1.90;;;;;;;16.66;40.73;63719.63;4967265;29;20267;-77
2022/09/19 11:21:44;;;;;;;1.05;1.00;;;;;;;16.71;40.60;63725.38;4990570;28;20215;-76
2022/09/19 11:24:34;;;;;;;4.10;1.20;;;;;;;16.81;41.02;63735.78;4987213;28;20251;-77
2022/09/19 11:27:16;;;;;;;1.35;0.95;;;;;;;16.96;39.43;63751.38;4990071;28;20219;-77
2022/09/19 11:29:56;;;;;;;2.30;1.13;;;;;;;17.12;40.28;63760.31;4983419;28;20204;-77
2022/09/19 11:32:39;;;;;;;2.58;1.20;;;;;;;17.12;39.20;63765.47;4969440;29;20225;-77
2022/09/19 11:35:25;;;;;;;0.90;0.90;;;;;;;17.13;39.83;63761.38;4966778;29;20278;-77
2022/09/19 11:38:02;;;;;;;1.33;1.20;;;;;;;17.28;39.15;63784.69;4968738;29;20219;-77
2022/09/19 11:40:43;;;;;;;2.60;1.20;;;;;;;17.45;39.07;63798.78;4967813;29;20461;-76
2022/09/19 11:43:30;;;;;;;1.65;1.55;;;;;;;17.67;41.02;63819.13;4971202;29;20224;-77
2022/09/19 11:46:03;;;;;;;5.68;1.38;;;;;;;17.79;39.63;63834.72;4967881;29;20523;-77
2022/09/19 11:49:00;;;;;;;2.53;2.38;;;;;;;17.85;38.45;63840.44;4968360;29;20290;-76
2022/09/19 11:51:32;;;;;;;1.33;1.23;;;;;;;17.66;37.96;63821.19;4964953;29;20352;-77
2022/09/19 11:54:22;;;;;;;1.95;1.10;;;;;;;17.83;39.79;63838.88;4971973;28;20199;-78
2022/09/19 11:57:09;;;;;;;0.98;0.98;;;;;;;17.96;37.70;63854.47;4982775;28;20364;-76
2022/09/19 12:00:04;;;;;;;1.00;1.00;;;;;;;17.97;37.47;63853.47;4983464;28;20195;-77
2022/09/19 12:03:00;;;;;;;1.85;0.95;;;;;;;17.83;37.30;63836.31;4987666;28;20250;-76
2022/09/19 12:05:45;;;;;;;1.25;0.80;;;;;;;17.97;36.89;63850.88;4985111;28;20303;-76
2022/09/19 12:08:24;;;;;;;1.05;1.05;;;;;;;18.05;36.91;63854.06;4986991;28;20484;-76
2022/09/19 12:10:58;;;;;;;3.65;1.20;;;;;;;18.17;37.43;63879.44;4986570;28;20421;-77
2022/09/19 12:13:33;;;;;;;1.27;1.17;;;;;;;18.28;38.69;63890.91;4988874;28;20579;-77